Aérodrome :
LOGIN :

S'inscrire | Disclaimer

   EN    FR    IT 

 










Légende :    VFR   VFR Marginal   IFR   IFR Intensif   IFR Très Intensif
Visi : 
Plafond : 
>= 8 km
>= 3000ft
5 à 8 km
1000 à 3000 ft
1500m à 5 km
500 à 1000 ft
800 à 1500m
200 à 500 ft
< 800m
< 200 ft
Symboles :   Orages  Brouillard  Fortes neiges  Fortes précipitations  Vent > 20 kt
SIGMETs :   Divers  Orages  Givrage  Turbulence  Onde Orograph.  Cendres Volcan.






- Altitude de l'aérodrome : -13 ft
- Code IATA : LEY


EHLE - Lelystad

DERNIER METAR :
  • 250955Z AUTO 19016KT 160V230 9999 SCT019 BKN023 BKN027 12/08 Q0993 NOSIG

METARs EXPIRÉS :
  • 250925Z AUTO 19018KT 160V220 9999 BKN019 OVC022 12/08 Q0994 NOSIG
  • 250855Z AUTO 20014KT 160V230 9999 BKN017 12/08 Q0994 NOSIG
  • 250825Z AUTO 20014KT 170V230 9999 BKN017 OVC020 11/07 Q0994 NOSIG
  • 250755Z AUTO 19016KT 160V230 9999 FEW016 10/07 Q0994 NOSIG
  • 250725Z AUTO 19012KT 160V220 9999 BKN015 10/07 Q0993 NOSIG

TAF TAF EHLE
Valide du 25 à 06h jusqu'au 26 à 12h UTC


250432Z 2506/2612 19015KT 9999 SCT025
BECMG 2509/2512 18016G26KT
PROB30
TEMPO 2514/2524 6000 SHRA RA BKN018 FEW025CB
BECMG 2515/2518 11010KT
PROB30 2519/2524 SCT008 BKN012
BECMG 2522/2601 VRB03KT
PROB40
TEMPO 2603/2609 6000 RA SHRA BKN022 FEW025CB
BECMG 2608/2611 03010KT



MET'MAP, la Météo Aéronautique d'un coup d'oeil ! - Copyright ORBIFLY Décembre 2007 - Disclaimer

ORBIFLY MET'MAP TEAM :

Programmation & Développement : Alexandra Zaïnal
Sur une idée originale de : Baudouin d'Aumeries
Assistance à la programmation : Marc-Olivier Méhu
Soutien technique & logistique : Manuel Goepfert

Contact : metmap@orbifly.com




SOURCES & CREDITS :

   NOAA